Thunder radar more information blitzortung!


Rain radar  rain snow radar



Ingen spesiell oppmerksomhet nødvendig.    Det er ingen advarsler

Nearby METAR Reports

   
ENZV - Stavanger
Oppdatert: Aug 17 2018 2:20 pm
Delvis overskyet  
Delvis overskyet  
   Vind: SV 5.1 m/s
Vind: SV 5.1 m/s
Temperatur: 18°C
Duggpunkt: 11°C
Luftfuktighet: 64%
Barometer: 1011 hPa
Skyer: Partly Cloudy
Sikt: More then 10 km
Detaljer skyer: Noen skyer 2000 ft,
Delvis overskyet 3000 ft
ENZV 171220Z 23010KT 9999 FEW020TCU SCT030 18/11 Q1011 NOSIG
ENCN - Kristiansand
Oppdatert: Aug 17 2018 2:20 pm
Noen skyer  
Noen skyer  
   Vind: SV 7.2 m/s
Vind: SV 7.2 m/s
Temperatur: 19°C
Duggpunkt: 11°C
Luftfuktighet: 60%
Barometer: 1012 hPa
Skyer: Few Clouds
Sikt: More then 10 km
Detaljer skyer: Noen skyer 3800 ft,
Noen skyer 3800 ft
ENCN 171220Z 22014KT 9999 FEW038 FEW038CB 19/11 Q1012
ENBR - Bergen
Oppdatert: Aug 17 2018 2:20 pm
Lokale byger, Delvis overskyet  
Lokale byger, Delvis overskyet  
   Vind: Sør 4.1 m/s
Vind: Sør 4.1 m/s
Temperatur: 14°C
Duggpunkt: 10°C
Luftfuktighet: 77%
Barometer: 1009 hPa
Skyer: Partly Cloudy
Sikt: More then 10 km
Detaljer skyer: Noen skyer 1200 ft,
Delvis overskyet 1500 ft,
Delvis overskyet 2500 ft
ENBR 171220Z 19008KT 9999 VCSH FEW012 SCT015CB SCT025 14/10 Q1009 TEMPO SHRA RMK WIND 1200FT 21015KT
ENGM - Oslo
Oppdatert: Aug 17 2018 2:20 pm
For det meste Overskyet  
For det meste Overskyet  
   Vind: SV 3.6 m/s
Vind: SV 3.6 m/s
Temperatur: 18°C
Duggpunkt: 10°C
Luftfuktighet: 60%
Barometer: 1010 hPa
Skyer: Mostly Cloudy
Sikt: More then 10 km
Detaljer skyer: Noen skyer 4000 ft,
For det meste Overskyet 4500 ft
ENGM 171220Z 22007KT 190V260 9999 FEW040TCU BKN045 18/10 Q1010 TEMPO SHRA
ENVA - Trondheim
Oppdatert: Aug 17 2018 2:20 pm
For det meste Overskyet  
For det meste Overskyet  
   Vind: VEST 5.7 m/s
Vind: VEST 5.7 m/s
Temperatur: 18°C
Duggpunkt: 12°C
Luftfuktighet: 68%
Barometer: 1004 hPa
Skyer: Mostly Cloudy
Sikt: More then 10 km
Detaljer skyer: Noen skyer 4000 ft,
For det meste Overskyet 9800 ft
ENVA 171220Z 26011KT 9999 FEW040 BKN098 18/12 Q1004 NOSIG RMK WIND 670FT 29012KT
ENTC - Tromsø
Oppdatert: Aug 17 2018 2:20 pm
Lokale byger, For det meste Overskyet  
Lokale byger, For det meste Overskyet  
   Vind: VEST 8.2 m/s
Vind: VEST 8.2 m/s
Temperatur: 13°C
Duggpunkt: 12°C
Luftfuktighet: 94%
Barometer: 999 hPa
Skyer: Mostly Cloudy
Sikt: More then 10 km
Detaljer skyer: Delvis overskyet 600 ft,
For det meste Overskyet 1200 ft
ENTC 171220Z 28016KT 9999 VCSH SCT006 BKN012 13/12 Q0999 TEMPO BKN015 RMK WIND 2600FT 25017KT

Script utviklet av  Saratoga-weather.org Tilpasset for tamplaten av  Weerstation Leuven

Du finner vår vær info også på:

European Weather Network

WeatherCloud

Weather Underground

AWEKAS

HAMweather, WeatherForYou, PWS Weather

Utrustning vi bruker:

vær-station
Davis VP2

vær-programmet
Weather Display

Davis VP2

Weather Display